sensor_id;sensor_type;location;lat;lon;timestamp;temperature;humidity
20068;DHT22;10194;50.824;7.134;2023-01-10T00:01:38;6.90;99.90
20068;DHT22;10194;50.824;7.134;2023-01-10T00:04:04;7.00;99.90
20068;DHT22;10194;50.824;7.134;2023-01-10T00:06:30;6.90;99.90
20068;DHT22;10194;50.824;7.134;2023-01-10T00:08:56;7.00;99.90
20068;DHT22;10194;50.824;7.134;2023-01-10T00:11:22;7.00;99.90
20068;DHT22;10194;50.824;7.134;2023-01-10T00:14:07;7.00;99.90
20068;DHT22;10194;50.824;7.134;2023-01-10T00:16:33;6.90;99.90
20068;DHT22;10194;50.824;7.134;2023-01-10T00:18:58;6.90;99.90
20068;DHT22;10194;50.824;7.134;2023-01-10T00:21:24;6.90;99.90
20068;DHT22;10194;50.824;7.134;2023-01-10T00:23:53;7.00;99.90
20068;DHT22;10194;50.824;7.134;2023-01-10T00:26:18;7.00;99.90
20068;DHT22;10194;50.824;7.134;2023-01-10T00:28:44;6.90;99.90
20068;DHT22;10194;50.824;7.134;2023-01-10T00:31:10;7.00;99.90
20068;DHT22;10194;50.824;7.134;2023-01-10T00:33:36;7.00;99.90
20068;DHT22;10194;50.824;7.134;2023-01-10T00:36:04;7.00;99.90
20068;DHT22;10194;50.824;7.134;2023-01-10T00:38:32;7.00;99.90
20068;DHT22;10194;50.824;7.134;2023-01-10T00:40:59;7.00;99.90
20068;DHT22;10194;50.824;7.134;2023-01-10T00:43:24;7.00;99.90
20068;DHT22;10194;50.824;7.134;2023-01-10T00:46:09;6.90;99.90
20068;DHT22;10194;50.824;7.134;2023-01-10T00:48:36;7.00;99.90
20068;DHT22;10194;50.824;7.134;2023-01-10T00:51:02;6.90;99.90
20068;DHT22;10194;50.824;7.134;2023-01-10T00:53:29;6.90;99.90
20068;DHT22;10194;50.824;7.134;2023-01-10T00:55:55;6.90;99.90
20068;DHT22;10194;50.824;7.134;2023-01-10T00:58:21;6.90;99.90
20068;DHT22;10194;50.824;7.134;2023-01-10T01:00:49;6.80;99.90
20068;DHT22;10194;50.824;7.134;2023-01-10T01:03:17;6.90;99.90
20068;DHT22;10194;50.824;7.134;2023-01-10T01:05:45;6.90;99.90
20068;DHT22;10194;50.824;7.134;2023-01-10T01:08:14;6.90;99.90
20068;DHT22;10194;50.824;7.134;2023-01-10T01:10:41;6.90;99.90
20068;DHT22;10194;50.824;7.134;2023-01-10T01:13:19;6.90;99.90
20068;DHT22;10194;50.824;7.134;2023-01-10T01:15:46;6.90;99.90
20068;DHT22;10194;50.824;7.134;2023-01-10T01:18:14;6.90;99.90
20068;DHT22;10194;50.824;7.134;2023-01-10T01:20:43;6.90;99.90
20068;DHT22;10194;50.824;7.134;2023-01-10T01:23:10;6.90;99.90
20068;DHT22;10194;50.824;7.134;2023-01-10T01:25:36;6.90;99.90
20068;DHT22;10194;50.824;7.134;2023-01-10T01:28:02;6.90;99.90
20068;DHT22;10194;50.824;7.134;2023-01-10T01:30:28;6.90;99.90
20068;DHT22;10194;50.824;7.134;2023-01-10T01:32:54;6.90;99.90
20068;DHT22;10194;50.824;7.134;2023-01-10T01:35:20;6.90;99.90
20068;DHT22;10194;50.824;7.134;2023-01-10T01:37:46;6.90;99.90
20068;DHT22;10194;50.824;7.134;2023-01-10T01:40:20;6.90;99.90
20068;DHT22;10194;50.824;7.134;2023-01-10T01:42:47;6.90;99.90
20068;DHT22;10194;50.824;7.134;2023-01-10T01:47:46;6.90;99.90
20068;DHT22;10194;50.824;7.134;2023-01-10T01:52:59;6.90;99.90
20068;DHT22;10194;50.824;7.134;2023-01-10T01:55:29;6.90;99.90
20068;DHT22;10194;50.824;7.134;2023-01-10T01:57:59;6.90;99.90
20068;DHT22;10194;50.824;7.134;2023-01-10T02:00:27;6.80;99.90
20068;DHT22;10194;50.824;7.134;2023-01-10T02:02:55;6.80;99.90
20068;DHT22;10194;50.824;7.134;2023-01-10T02:05:22;6.90;99.90
20068;DHT22;10194;50.824;7.134;2023-01-10T02:07:51;6.90;99.90
20068;DHT22;10194;50.824;7.134;2023-01-10T02:10:37;6.90;99.90
20068;DHT22;10194;50.824;7.134;2023-01-10T02:13:15;6.80;99.90
20068;DHT22;10194;50.824;7.134;2023-01-10T02:15:44;6.80;99.90
20068;DHT22;10194;50.824;7.134;2023-01-10T02:18:10;6.80;99.90
20068;DHT22;10194;50.824;7.134;2023-01-10T02:20:56;6.80;99.90
20068;DHT22;10194;50.824;7.134;2023-01-10T02:27:00;6.80;99.90
20068;DHT22;10194;50.824;7.134;2023-01-10T02:42:10;6.80;99.90
20068;DHT22;10194;50.824;7.134;2023-01-10T02:44:40;6.80;99.90
20068;DHT22;10194;50.824;7.134;2023-01-10T02:47:09;6.80;99.90
20068;DHT22;10194;50.824;7.134;2023-01-10T02:49:47;6.80;99.90
20068;DHT22;10194;50.824;7.134;2023-01-10T02:52:21;6.80;99.90
20068;DHT22;10194;50.824;7.134;2023-01-10T02:54:56;6.80;99.90
20068;DHT22;10194;50.824;7.134;2023-01-10T02:57:46;6.80;99.90
20068;DHT22;10194;50.824;7.134;2023-01-10T03:02:57;6.80;99.90
20068;DHT22;10194;50.824;7.134;2023-01-10T03:08:58;6.70;99.90
20068;DHT22;10194;50.824;7.134;2023-01-10T03:11:28;6.70;99.90
20068;DHT22;10194;50.824;7.134;2023-01-10T03:14:09;6.70;99.90
20068;DHT22;10194;50.824;7.134;2023-01-10T03:16:41;6.70;99.90
20068;DHT22;10194;50.824;7.134;2023-01-10T03:19:12;6.60;99.90
20068;DHT22;10194;50.824;7.134;2023-01-10T03:21:42;6.60;99.90
20068;DHT22;10194;50.824;7.134;2023-01-10T03:24:16;6.70;99.90
20068;DHT22;10194;50.824;7.134;2023-01-10T03:26:51;6.60;99.90
20068;DHT22;10194;50.824;7.134;2023-01-10T03:29:27;6.60;99.90
20068;DHT22;10194;50.824;7.134;2023-01-10T03:31:58;6.60;99.90
20068;DHT22;10194;50.824;7.134;2023-01-10T03:34:25;6.60;99.90
20068;DHT22;10194;50.824;7.134;2023-01-10T03:39:53;6.60;99.90
20068;DHT22;10194;50.824;7.134;2023-01-10T03:46:05;6.60;99.90
20068;DHT22;10194;50.824;7.134;2023-01-10T03:48:35;6.60;99.90
20068;DHT22;10194;50.824;7.134;2023-01-10T03:51:04;6.60;99.90
20068;DHT22;10194;50.824;7.134;2023-01-10T03:53:36;6.50;99.90
20068;DHT22;10194;50.824;7.134;2023-01-10T03:56:02;6.40;99.90
20068;DHT22;10194;50.824;7.134;2023-01-10T03:58:29;6.30;99.90
20068;DHT22;10194;50.824;7.134;2023-01-10T04:00:54;6.30;99.90
20068;DHT22;10194;50.824;7.134;2023-01-10T04:03:20;6.20;99.90
20068;DHT22;10194;50.824;7.134;2023-01-10T04:05:46;6.30;99.90
20068;DHT22;10194;50.824;7.134;2023-01-10T04:08:12;6.30;99.90
20068;DHT22;10194;50.824;7.134;2023-01-10T04:10:38;6.30;99.90
20068;DHT22;10194;50.824;7.134;2023-01-10T04:13:04;6.30;99.90
20068;DHT22;10194;50.824;7.134;2023-01-10T04:15:30;6.20;99.90
20068;DHT22;10194;50.824;7.134;2023-01-10T04:17:56;6.30;99.90
20068;DHT22;10194;50.824;7.134;2023-01-10T04:20:22;6.30;99.90
20068;DHT22;10194;50.824;7.134;2023-01-10T04:22:51;6.30;99.90
20068;DHT22;10194;50.824;7.134;2023-01-10T04:25:19;6.30;99.90
20068;DHT22;10194;50.824;7.134;2023-01-10T04:27:48;6.30;99.90
20068;DHT22;10194;50.824;7.134;2023-01-10T04:30:15;6.30;99.90
20068;DHT22;10194;50.824;7.134;2023-01-10T04:32:41;6.20;99.90
20068;DHT22;10194;50.824;7.134;2023-01-10T04:35:07;6.20;99.90
20068;DHT22;10194;50.824;7.134;2023-01-10T04:37:33;6.20;99.90
20068;DHT22;10194;50.824;7.134;2023-01-10T04:39:59;6.20;99.90
20068;DHT22;10194;50.824;7.134;2023-01-10T04:42:25;6.10;99.90
20068;DHT22;10194;50.824;7.134;2023-01-10T04:44:51;6.00;99.90
20068;DHT22;10194;50.824;7.134;2023-01-10T04:47:16;5.90;99.90
20068;DHT22;10194;50.824;7.134;2023-01-10T04:49:42;5.90;99.90
20068;DHT22;10194;50.824;7.134;2023-01-10T04:52:09;5.80;99.90
20068;DHT22;10194;50.824;7.134;2023-01-10T04:54:35;5.70;99.90
20068;DHT22;10194;50.824;7.134;2023-01-10T04:57:01;5.60;99.90
20068;DHT22;10194;50.824;7.134;2023-01-10T04:59:26;5.50;99.90
20068;DHT22;10194;50.824;7.134;2023-01-10T05:01:52;5.50;99.90
20068;DHT22;10194;50.824;7.134;2023-01-10T05:04:18;5.40;99.90
20068;DHT22;10194;50.824;7.134;2023-01-10T05:06:44;5.30;99.90
20068;DHT22;10194;50.824;7.134;2023-01-10T05:09:09;5.20;99.90
20068;DHT22;10194;50.824;7.134;2023-01-10T05:11:35;5.20;99.90
20068;DHT22;10194;50.824;7.134;2023-01-10T05:14:01;5.20;99.90
20068;DHT22;10194;50.824;7.134;2023-01-10T05:16:27;5.20;99.90
20068;DHT22;10194;50.824;7.134;2023-01-10T05:18:53;5.20;99.90
20068;DHT22;10194;50.824;7.134;2023-01-10T05:21:19;5.20;99.90
20068;DHT22;10194;50.824;7.134;2023-01-10T05:23:45;5.30;99.90
20068;DHT22;10194;50.824;7.134;2023-01-10T05:26:13;5.30;99.90
20068;DHT22;10194;50.824;7.134;2023-01-10T05:28:40;5.30;99.90
20068;DHT22;10194;50.824;7.134;2023-01-10T05:31:12;5.30;99.90
20068;DHT22;10194;50.824;7.134;2023-01-10T05:33:46;5.40;99.90
20068;DHT22;10194;50.824;7.134;2023-01-10T05:36:14;5.40;99.90
20068;DHT22;10194;50.824;7.134;2023-01-10T05:38:40;5.40;99.90
20068;DHT22;10194;50.824;7.134;2023-01-10T05:41:06;5.40;99.90
20068;DHT22;10194;50.824;7.134;2023-01-10T05:43:32;5.50;99.90
20068;DHT22;10194;50.824;7.134;2023-01-10T05:45:58;5.40;99.90
20068;DHT22;10194;50.824;7.134;2023-01-10T05:48:23;5.40;99.90
20068;DHT22;10194;50.824;7.134;2023-01-10T05:50:50;5.30;99.90
20068;DHT22;10194;50.824;7.134;2023-01-10T05:53:17;5.30;99.90
20068;DHT22;10194;50.824;7.134;2023-01-10T05:55:43;5.40;99.90
20068;DHT22;10194;50.824;7.134;2023-01-10T05:58:09;5.40;99.90
20068;DHT22;10194;50.824;7.134;2023-01-10T06:00:36;5.50;99.90
20068;DHT22;10194;50.824;7.134;2023-01-10T06:03:04;5.50;99.90
20068;DHT22;10194;50.824;7.134;2023-01-10T06:05:29;5.60;99.90
20068;DHT22;10194;50.824;7.134;2023-01-10T06:07:55;5.60;99.90
20068;DHT22;10194;50.824;7.134;2023-01-10T06:10:21;5.70;99.90
20068;DHT22;10194;50.824;7.134;2023-01-10T06:12:47;5.60;99.90
20068;DHT22;10194;50.824;7.134;2023-01-10T06:15:14;5.50;99.90
20068;DHT22;10194;50.824;7.134;2023-01-10T06:17:41;5.40;99.90
20068;DHT22;10194;50.824;7.134;2023-01-10T06:20:09;5.30;99.90
20068;DHT22;10194;50.824;7.134;2023-01-10T06:22:39;5.10;99.90
20068;DHT22;10194;50.824;7.134;2023-01-10T06:25:07;5.20;99.90
20068;DHT22;10194;50.824;7.134;2023-01-10T06:27:34;5.20;99.90
20068;DHT22;10194;50.824;7.134;2023-01-10T06:30:00;5.30;99.90
20068;DHT22;10194;50.824;7.134;2023-01-10T06:32:26;5.30;99.90
20068;DHT22;10194;50.824;7.134;2023-01-10T06:34:52;5.40;99.90
20068;DHT22;10194;50.824;7.134;2023-01-10T06:37:18;5.50;99.90
20068;DHT22;10194;50.824;7.134;2023-01-10T06:39:43;5.60;99.90
20068;DHT22;10194;50.824;7.134;2023-01-10T06:42:11;5.70;99.90
20068;DHT22;10194;50.824;7.134;2023-01-10T06:44:37;5.70;99.90
20068;DHT22;10194;50.824;7.134;2023-01-10T06:47:03;5.80;99.90
20068;DHT22;10194;50.824;7.134;2023-01-10T06:49:28;5.90;99.90
20068;DHT22;10194;50.824;7.134;2023-01-10T06:51:54;6.00;99.90
20068;DHT22;10194;50.824;7.134;2023-01-10T06:54:20;6.10;99.90
20068;DHT22;10194;50.824;7.134;2023-01-10T06:56:47;6.10;99.90
20068;DHT22;10194;50.824;7.134;2023-01-10T06:59:13;6.20;99.90
20068;DHT22;10194;50.824;7.134;2023-01-10T07:01:39;6.20;99.90
20068;DHT22;10194;50.824;7.134;2023-01-10T07:04:05;6.10;99.90
20068;DHT22;10194;50.824;7.134;2023-01-10T07:06:31;6.10;99.90
20068;DHT22;10194;50.824;7.134;2023-01-10T07:08:56;6.00;99.90
20068;DHT22;10194;50.824;7.134;2023-01-10T07:11:22;6.00;99.90
20068;DHT22;10194;50.824;7.134;2023-01-10T07:13:48;5.90;99.90
20068;DHT22;10194;50.824;7.134;2023-01-10T07:16:15;5.90;99.90
20068;DHT22;10194;50.824;7.134;2023-01-10T07:18:42;5.80;99.90
20068;DHT22;10194;50.824;7.134;2023-01-10T07:21:09;5.70;99.90
20068;DHT22;10194;50.824;7.134;2023-01-10T07:23:35;5.80;99.90
20068;DHT22;10194;50.824;7.134;2023-01-10T07:26:08;5.70;99.90
20068;DHT22;10194;50.824;7.134;2023-01-10T07:28:35;5.70;99.90
20068;DHT22;10194;50.824;7.134;2023-01-10T07:31:02;5.70;99.90
20068;DHT22;10194;50.824;7.134;2023-01-10T07:33:29;5.60;99.90
20068;DHT22;10194;50.824;7.134;2023-01-10T07:35:56;5.60;99.90
20068;DHT22;10194;50.824;7.134;2023-01-10T07:38:22;5.60;99.90
20068;DHT22;10194;50.824;7.134;2023-01-10T07:40:48;5.50;99.90
20068;DHT22;10194;50.824;7.134;2023-01-10T07:43:14;5.60;99.90
20068;DHT22;10194;50.824;7.134;2023-01-10T07:45:39;5.60;99.90
20068;DHT22;10194;50.824;7.134;2023-01-10T07:48:05;5.70;99.90
20068;DHT22;10194;50.824;7.134;2023-01-10T07:50:34;5.70;99.90
20068;DHT22;10194;50.824;7.134;2023-01-10T07:53:01;5.80;99.90
20068;DHT22;10194;50.824;7.134;2023-01-10T07:55:29;5.90;99.90
20068;DHT22;10194;50.824;7.134;2023-01-10T07:57:55;5.90;99.90
20068;DHT22;10194;50.824;7.134;2023-01-10T08:00:21;6.00;99.90
20068;DHT22;10194;50.824;7.134;2023-01-10T08:02:52;6.00;99.90
20068;DHT22;10194;50.824;7.134;2023-01-10T08:05:19;6.10;99.90
20068;DHT22;10194;50.824;7.134;2023-01-10T08:07:45;6.10;99.90
20068;DHT22;10194;50.824;7.134;2023-01-10T08:10:11;6.20;99.90
20068;DHT22;10194;50.824;7.134;2023-01-10T08:12:37;6.20;99.90
20068;DHT22;10194;50.824;7.134;2023-01-10T08:15:03;6.20;99.90
20068;DHT22;10194;50.824;7.134;2023-01-10T08:17:32;6.30;99.90
20068;DHT22;10194;50.824;7.134;2023-01-10T08:19:58;6.40;99.90
20068;DHT22;10194;50.824;7.134;2023-01-10T08:22:24;6.40;99.90
20068;DHT22;10194;50.824;7.134;2023-01-10T08:24:50;6.50;99.90
20068;DHT22;10194;50.824;7.134;2023-01-10T08:27:15;6.50;99.90
20068;DHT22;10194;50.824;7.134;2023-01-10T08:29:41;6.50;99.90
20068;DHT22;10194;50.824;7.134;2023-01-10T08:32:07;6.50;99.90
20068;DHT22;10194;50.824;7.134;2023-01-10T08:34:33;6.50;99.90
20068;DHT22;10194;50.824;7.134;2023-01-10T08:36:59;6.50;99.90
20068;DHT22;10194;50.824;7.134;2023-01-10T08:39:25;6.50;99.90
20068;DHT22;10194;50.824;7.134;2023-01-10T08:41:55;6.70;99.90
20068;DHT22;10194;50.824;7.134;2023-01-10T08:44:21;6.70;99.90
20068;DHT22;10194;50.824;7.134;2023-01-10T08:46:47;6.80;99.90
20068;DHT22;10194;50.824;7.134;2023-01-10T08:49:13;6.80;99.90
20068;DHT22;10194;50.824;7.134;2023-01-10T08:51:38;6.80;99.90
20068;DHT22;10194;50.824;7.134;2023-01-10T08:54:04;6.90;99.90
20068;DHT22;10194;50.824;7.134;2023-01-10T08:56:30;6.90;99.90
20068;DHT22;10194;50.824;7.134;2023-01-10T08:58:56;6.80;99.90
20068;DHT22;10194;50.824;7.134;2023-01-10T09:01:22;6.80;99.90
20068;DHT22;10194;50.824;7.134;2023-01-10T09:03:48;6.90;99.90
20068;DHT22;10194;50.824;7.134;2023-01-10T09:06:14;6.90;99.90
20068;DHT22;10194;50.824;7.134;2023-01-10T09:08:40;7.00;99.90
20068;DHT22;10194;50.824;7.134;2023-01-10T09:11:06;6.90;99.90
20068;DHT22;10194;50.824;7.134;2023-01-10T09:13:32;6.80;99.90
20068;DHT22;10194;50.824;7.134;2023-01-10T09:15:59;6.70;99.90
20068;DHT22;10194;50.824;7.134;2023-01-10T09:18:25;6.70;99.90
20068;DHT22;10194;50.824;7.134;2023-01-10T09:20:52;6.70;99.90
20068;DHT22;10194;50.824;7.134;2023-01-10T09:23:20;6.60;99.90
20068;DHT22;10194;50.824;7.134;2023-01-10T09:25:48;6.60;99.90
20068;DHT22;10194;50.824;7.134;2023-01-10T09:28:16;6.60;99.90
20068;DHT22;10194;50.824;7.134;2023-01-10T09:30:43;6.60;99.90
20068;DHT22;10194;50.824;7.134;2023-01-10T09:33:09;6.50;99.90
20068;DHT22;10194;50.824;7.134;2023-01-10T09:35:38;6.60;99.90
20068;DHT22;10194;50.824;7.134;2023-01-10T09:38:06;6.60;99.90
20068;DHT22;10194;50.824;7.134;2023-01-10T09:40:54;6.60;99.90
20068;DHT22;10194;50.824;7.134;2023-01-10T09:52:24;6.90;99.90
20068;DHT22;10194;50.824;7.134;2023-01-10T09:54:54;6.90;99.90
20068;DHT22;10194;50.824;7.134;2023-01-10T09:57:22;7.00;99.90
20068;DHT22;10194;50.824;7.134;2023-01-10T09:59:50;7.00;99.90
20068;DHT22;10194;50.824;7.134;2023-01-10T10:02:35;7.10;99.90
20068;DHT22;10194;50.824;7.134;2023-01-10T10:05:25;7.20;99.90
20068;DHT22;10194;50.824;7.134;2023-01-10T10:08:01;7.30;99.90
20068;DHT22;10194;50.824;7.134;2023-01-10T10:31:48;7.70;99.90
20068;DHT22;10194;50.824;7.134;2023-01-10T10:37:37;7.80;99.90
20068;DHT22;10194;50.824;7.134;2023-01-10T10:40:05;7.90;99.90
20068;DHT22;10194;50.824;7.134;2023-01-10T10:42:43;7.90;99.90
20068;DHT22;10194;50.824;7.134;2023-01-10T10:45:37;8.10;99.90
20068;DHT22;10194;50.824;7.134;2023-01-10T10:51:06;8.20;99.90
20068;DHT22;10194;50.824;7.134;2023-01-10T10:53:35;8.30;99.90
20068;DHT22;10194;50.824;7.134;2023-01-10T10:56:03;8.40;99.90
20068;DHT22;10194;50.824;7.134;2023-01-10T10:58:30;8.40;99.90
20068;DHT22;10194;50.824;7.134;2023-01-10T11:00:57;8.50;99.90
20068;DHT22;10194;50.824;7.134;2023-01-10T11:03:30;8.60;99.90
20068;DHT22;10194;50.824;7.134;2023-01-10T11:05:58;8.60;99.90
20068;DHT22;10194;50.824;7.134;2023-01-10T11:08:25;8.70;99.90
20068;DHT22;10194;50.824;7.134;2023-01-10T11:10:55;8.80;99.90
20068;DHT22;10194;50.824;7.134;2023-01-10T11:13:45;8.90;99.90
20068;DHT22;10194;50.824;7.134;2023-01-10T11:16:33;9.00;99.90
20068;DHT22;10194;50.824;7.134;2023-01-10T11:19:17;9.00;99.90
20068;DHT22;10194;50.824;7.134;2023-01-10T11:21:59;9.00;99.90
20068;DHT22;10194;50.824;7.134;2023-01-10T11:24:35;9.10;99.90
20068;DHT22;10194;50.824;7.134;2023-01-10T11:27:14;9.00;99.90
20068;DHT22;10194;50.824;7.134;2023-01-10T11:29:48;9.10;99.90
20068;DHT22;10194;50.824;7.134;2023-01-10T11:32:21;9.10;99.90
20068;DHT22;10194;50.824;7.134;2023-01-10T11:34:57;9.10;99.90
20068;DHT22;10194;50.824;7.134;2023-01-10T11:37:27;9.10;99.90
20068;DHT22;10194;50.824;7.134;2023-01-10T11:40:18;9.10;99.90
20068;DHT22;10194;50.824;7.134;2023-01-10T11:42:49;9.10;99.90
20068;DHT22;10194;50.824;7.134;2023-01-10T11:50:42;8.90;99.90
20068;DHT22;10194;50.824;7.134;2023-01-10T11:53:35;8.90;99.90
20068;DHT22;10194;50.824;7.134;2023-01-10T11:56:04;8.90;99.90
20068;DHT22;10194;50.824;7.134;2023-01-10T11:58:33;8.90;99.90
20068;DHT22;10194;50.824;7.134;2023-01-10T12:01:00;9.00;99.90
20068;DHT22;10194;50.824;7.134;2023-01-10T12:03:34;9.00;99.90
20068;DHT22;10194;50.824;7.134;2023-01-10T12:06:13;9.00;99.90
20068;DHT22;10194;50.824;7.134;2023-01-10T12:08:40;9.10;99.90
20068;DHT22;10194;50.824;7.134;2023-01-10T12:13:45;9.20;99.90
20068;DHT22;10194;50.824;7.134;2023-01-10T12:16:32;9.20;99.90
20068;DHT22;10194;50.824;7.134;2023-01-10T12:19:04;9.20;99.90
20068;DHT22;10194;50.824;7.134;2023-01-10T12:21:38;9.30;99.90
20068;DHT22;10194;50.824;7.134;2023-01-10T12:26:41;9.30;99.90
20068;DHT22;10194;50.824;7.134;2023-01-10T12:29:17;9.30;99.90
20068;DHT22;10194;50.824;7.134;2023-01-10T12:31:50;9.30;99.90
20068;DHT22;10194;50.824;7.134;2023-01-10T12:34:19;9.30;99.90
20068;DHT22;10194;50.824;7.134;2023-01-10T12:37:11;9.20;99.90
20068;DHT22;10194;50.824;7.134;2023-01-10T12:39:54;9.20;99.90
20068;DHT22;10194;50.824;7.134;2023-01-10T12:42:41;9.10;99.90
20068;DHT22;10194;50.824;7.134;2023-01-10T12:45:35;9.10;99.90
20068;DHT22;10194;50.824;7.134;2023-01-10T12:48:24;8.90;99.90
20068;DHT22;10194;50.824;7.134;2023-01-10T12:51:03;8.90;99.90
20068;DHT22;10194;50.824;7.134;2023-01-10T12:53:34;8.90;99.90
20068;DHT22;10194;50.824;7.134;2023-01-10T12:56:05;8.90;99.90
20068;DHT22;10194;50.824;7.134;2023-01-10T12:58:44;8.90;99.90
20068;DHT22;10194;50.824;7.134;2023-01-10T13:01:20;8.90;99.90
20068;DHT22;10194;50.824;7.134;2023-01-10T13:03:58;8.80;99.90
20068;DHT22;10194;50.824;7.134;2023-01-10T13:06:32;8.80;99.90
20068;DHT22;10194;50.824;7.134;2023-01-10T13:09:04;8.90;99.90
20068;DHT22;10194;50.824;7.134;2023-01-10T13:11:41;8.80;99.90
20068;DHT22;10194;50.824;7.134;2023-01-10T13:14:13;8.90;99.90
20068;DHT22;10194;50.824;7.134;2023-01-10T13:16:47;8.90;99.90
20068;DHT22;10194;50.824;7.134;2023-01-10T13:21:44;8.90;99.90
20068;DHT22;10194;50.824;7.134;2023-01-10T13:26:58;8.80;99.90
20068;DHT22;10194;50.824;7.134;2023-01-10T13:29:40;8.70;99.90
20068;DHT22;10194;50.824;7.134;2023-01-10T13:35:12;8.70;99.90
20068;DHT22;10194;50.824;7.134;2023-01-10T13:37:41;8.60;99.90
20068;DHT22;10194;50.824;7.134;2023-01-10T13:40:26;8.60;99.90
20068;DHT22;10194;50.824;7.134;2023-01-10T13:51:16;8.60;99.90
20068;DHT22;10194;50.824;7.134;2023-01-10T13:58:57;8.50;99.90
20068;DHT22;10194;50.824;7.134;2023-01-10T14:01:43;8.50;99.90
20068;DHT22;10194;50.824;7.134;2023-01-10T14:04:34;8.40;99.90
20068;DHT22;10194;50.824;7.134;2023-01-10T14:07:04;8.40;99.90
20068;DHT22;10194;50.824;7.134;2023-01-10T14:09:40;8.40;99.90
20068;DHT22;10194;50.824;7.134;2023-01-10T14:12:25;8.40;99.90
20068;DHT22;10194;50.824;7.134;2023-01-10T14:15:04;8.30;99.90
20068;DHT22;10194;50.824;7.134;2023-01-10T14:17:43;8.30;99.90
20068;DHT22;10194;50.824;7.134;2023-01-10T14:22:44;8.20;99.90
20068;DHT22;10194;50.824;7.134;2023-01-10T14:25:21;8.20;99.90
20068;DHT22;10194;50.824;7.134;2023-01-10T14:27:49;8.20;99.90
20068;DHT22;10194;50.824;7.134;2023-01-10T14:30:22;8.20;99.90
20068;DHT22;10194;50.824;7.134;2023-01-10T14:33:22;8.20;99.90
20068;DHT22;10194;50.824;7.134;2023-01-10T14:35:55;8.20;99.90
20068;DHT22;10194;50.824;7.134;2023-01-10T14:38:27;8.20;99.90
20068;DHT22;10194;50.824;7.134;2023-01-10T14:41:00;8.10;99.90
20068;DHT22;10194;50.824;7.134;2023-01-10T14:43:37;8.20;99.90
20068;DHT22;10194;50.824;7.134;2023-01-10T14:46:18;8.10;99.90
20068;DHT22;10194;50.824;7.134;2023-01-10T14:48:49;8.20;99.90
20068;DHT22;10194;50.824;7.134;2023-01-10T14:54:18;8.20;99.90
20068;DHT22;10194;50.824;7.134;2023-01-10T14:56:51;8.20;99.90
20068;DHT22;10194;50.824;7.134;2023-01-10T14:59:31;8.10;99.90
20068;DHT22;10194;50.824;7.134;2023-01-10T15:02:19;8.10;99.90
20068;DHT22;10194;50.824;7.134;2023-01-10T15:07:40;8.00;99.90
20068;DHT22;10194;50.824;7.134;2023-01-10T15:10:29;8.00;99.90
20068;DHT22;10194;50.824;7.134;2023-01-10T15:13:00;8.00;99.90
20068;DHT22;10194;50.824;7.134;2023-01-10T15:15:37;7.90;99.90
20068;DHT22;10194;50.824;7.134;2023-01-10T15:20:47;8.00;99.90
20068;DHT22;10194;50.824;7.134;2023-01-10T15:23:14;8.00;99.90
20068;DHT22;10194;50.824;7.134;2023-01-10T15:25:41;7.90;99.90
20068;DHT22;10194;50.824;7.134;2023-01-10T15:28:15;7.90;99.90
20068;DHT22;10194;50.824;7.134;2023-01-10T15:30:42;7.90;99.90
20068;DHT22;10194;50.824;7.134;2023-01-10T15:33:24;7.90;99.90
20068;DHT22;10194;50.824;7.134;2023-01-10T15:35:56;7.90;99.90
20068;DHT22;10194;50.824;7.134;2023-01-10T15:38:34;7.90;99.90
20068;DHT22;10194;50.824;7.134;2023-01-10T15:41:04;7.90;99.90
20068;DHT22;10194;50.824;7.134;2023-01-10T15:43:32;7.90;99.90
20068;DHT22;10194;50.824;7.134;2023-01-10T15:46:01;8.00;99.90
20068;DHT22;10194;50.824;7.134;2023-01-10T15:48:34;8.00;99.90
20068;DHT22;10194;50.824;7.134;2023-01-10T15:51:13;8.00;99.90
20068;DHT22;10194;50.824;7.134;2023-01-10T15:56:37;7.90;99.90
20068;DHT22;10194;50.824;7.134;2023-01-10T15:59:31;7.80;99.90
20068;DHT22;10194;50.824;7.134;2023-01-10T16:04:58;7.80;99.90
20068;DHT22;10194;50.824;7.134;2023-01-10T16:07:41;7.80;99.90
20068;DHT22;10194;50.824;7.134;2023-01-10T16:10:18;7.70;99.90
20068;DHT22;10194;50.824;7.134;2023-01-10T16:12:49;7.70;99.90
20068;DHT22;10194;50.824;7.134;2023-01-10T16:15:35;7.70;99.90
20068;DHT22;10194;50.824;7.134;2023-01-10T16:18:06;7.70;99.90
20068;DHT22;10194;50.824;7.134;2023-01-10T16:20:40;7.60;99.90
20068;DHT22;10194;50.824;7.134;2023-01-10T16:23:19;7.50;99.90
20068;DHT22;10194;50.824;7.134;2023-01-10T16:25:59;7.40;99.90
20068;DHT22;10194;50.824;7.134;2023-01-10T16:28:26;7.30;99.90
20068;DHT22;10194;50.824;7.134;2023-01-10T16:30:55;7.20;99.90
20068;DHT22;10194;50.824;7.134;2023-01-10T16:33:23;7.20;99.90
20068;DHT22;10194;50.824;7.134;2023-01-10T16:35:54;7.10;99.90
20068;DHT22;10194;50.824;7.134;2023-01-10T16:38:21;7.00;99.90
20068;DHT22;10194;50.824;7.134;2023-01-10T16:40:51;7.00;99.90
20068;DHT22;10194;50.824;7.134;2023-01-10T16:43:19;6.90;99.90
20068;DHT22;10194;50.824;7.134;2023-01-10T16:45:53;6.80;99.90
20068;DHT22;10194;50.824;7.134;2023-01-10T16:48:28;6.80;99.90
20068;DHT22;10194;50.824;7.134;2023-01-10T16:51:04;6.80;99.90
20068;DHT22;10194;50.824;7.134;2023-01-10T16:53:40;6.70;99.90
20068;DHT22;10194;50.824;7.134;2023-01-10T16:56:07;6.70;99.90
20068;DHT22;10194;50.824;7.134;2023-01-10T16:58:36;6.70;99.90
20068;DHT22;10194;50.824;7.134;2023-01-10T17:01:02;6.70;99.90
20068;DHT22;10194;50.824;7.134;2023-01-10T17:03:32;6.70;99.90
20068;DHT22;10194;50.824;7.134;2023-01-10T17:06:03;6.70;99.90
20068;DHT22;10194;50.824;7.134;2023-01-10T17:08:29;6.70;99.90
20068;DHT22;10194;50.824;7.134;2023-01-10T17:10:58;6.70;99.90
20068;DHT22;10194;50.824;7.134;2023-01-10T17:13:34;6.70;99.90
20068;DHT22;10194;50.824;7.134;2023-01-10T17:16:02;6.70;99.90
20068;DHT22;10194;50.824;7.134;2023-01-10T17:18:27;6.70;99.90
20068;DHT22;10194;50.824;7.134;2023-01-10T17:20:54;6.70;99.90
20068;DHT22;10194;50.824;7.134;2023-01-10T17:23:22;6.70;99.90
20068;DHT22;10194;50.824;7.134;2023-01-10T17:25:48;6.70;99.90
20068;DHT22;10194;50.824;7.134;2023-01-10T17:28:15;6.70;99.90
20068;DHT22;10194;50.824;7.134;2023-01-10T17:30:42;6.70;99.90
20068;DHT22;10194;50.824;7.134;2023-01-10T17:33:08;6.70;99.90
20068;DHT22;10194;50.824;7.134;2023-01-10T17:35:41;6.70;99.90
20068;DHT22;10194;50.824;7.134;2023-01-10T17:38:13;6.60;99.90
20068;DHT22;10194;50.824;7.134;2023-01-10T17:40:45;6.70;99.90
20068;DHT22;10194;50.824;7.134;2023-01-10T17:43:13;6.70;99.90
20068;DHT22;10194;50.824;7.134;2023-01-10T17:45:44;6.60;99.90
20068;DHT22;10194;50.824;7.134;2023-01-10T17:48:13;6.60;99.90
20068;DHT22;10194;50.824;7.134;2023-01-10T17:50:44;6.60;99.90
20068;DHT22;10194;50.824;7.134;2023-01-10T17:53:11;6.60;99.90
20068;DHT22;10194;50.824;7.134;2023-01-10T17:55:47;6.60;99.90
20068;DHT22;10194;50.824;7.134;2023-01-10T17:58:15;6.60;99.90
20068;DHT22;10194;50.824;7.134;2023-01-10T18:00:41;6.60;99.90
20068;DHT22;10194;50.824;7.134;2023-01-10T18:03:08;6.50;99.90
20068;DHT22;10194;50.824;7.134;2023-01-10T18:05:34;6.50;99.90